createdAt,value
2018-11-25T00:00:37.872Z,31.30
2018-11-25T00:06:42.613Z,32.73
2018-11-25T00:12:44.923Z,32.50
2018-11-25T00:18:48.623Z,32.30
2018-11-25T00:24:51.967Z,29.87
2018-11-25T00:30:55.325Z,29.83
2018-11-25T00:36:58.661Z,31.20
2018-11-25T00:43:02.123Z,31.47
2018-11-25T00:49:05.855Z,32.33
2018-11-25T00:55:12.758Z,33.30
2018-11-25T01:01:16.182Z,32.37
2018-11-25T01:07:19.652Z,33.17
2018-11-25T01:13:23.550Z,32.30
2018-11-25T01:19:26.949Z,33.53
2018-11-25T01:25:30.397Z,36.53
2018-11-25T01:31:33.810Z,40.53
2018-11-25T01:37:37.415Z,39.90
2018-11-25T01:43:40.903Z,39.17
2018-11-25T01:49:44.500Z,41.27
2018-11-25T01:55:48.013Z,39.67
2018-11-25T02:01:52.443Z,41.47
2018-11-25T02:07:56.012Z,39.90
2018-11-25T02:13:59.715Z,40.43
2018-11-25T02:20:07.620Z,39.67
2018-11-25T02:26:12.202Z,40.13
2018-11-25T02:32:15.732Z,47.33
2018-11-25T02:38:19.217Z,41.30
2018-11-25T02:44:22.586Z,39.23
2018-11-25T02:50:27.565Z,43.37
2018-11-25T02:56:31.043Z,39.67
2018-11-25T03:02:34.399Z,40.80
2018-11-25T03:08:37.753Z,44.30
2018-11-25T03:14:41.179Z,43.30
2018-11-25T03:20:44.909Z,43.30
2018-11-25T03:26:48.550Z,40.87
2018-11-25T03:32:53.104Z,38.00
2018-11-25T03:38:56.369Z,40.07
2018-11-25T03:44:59.733Z,38.50
2018-11-25T03:51:04.008Z,34.53
2018-11-25T03:57:08.226Z,34.60
2018-11-25T04:03:12.051Z,35.93
2018-11-25T04:09:15.415Z,38.33
2018-11-25T04:15:19.368Z,42.37
2018-11-25T04:21:22.763Z,38.07
2018-11-25T04:27:26.143Z,40.30
2018-11-25T04:33:29.479Z,39.83
2018-11-25T04:39:32.804Z,44.17
2018-11-25T04:45:36.128Z,44.10
2018-11-25T04:51:44.747Z,43.70
2018-11-25T04:57:49.514Z,43.03
2018-11-25T05:03:54.101Z,43.27
2018-11-25T05:09:57.447Z,44.47
2018-11-25T05:16:01.424Z,43.43
2018-11-25T05:22:04.805Z,44.87
2018-11-25T05:28:08.793Z,41.17
2018-11-25T05:34:12.119Z,39.87
2018-11-25T05:40:16.451Z,37.87
2018-11-25T05:46:19.772Z,38.73
2018-11-25T05:52:23.563Z,38.97
2018-11-25T05:58:27.262Z,37.77
2018-11-25T06:04:30.604Z,39.63
2018-11-25T06:10:33.915Z,35.73
2018-11-25T06:16:37.235Z,33.47
2018-11-25T06:22:40.810Z,35.17
2018-11-25T06:28:44.219Z,33.30
2018-11-25T06:34:51.736Z,31.13
2018-11-25T06:40:55.241Z,28.30
2018-11-25T06:46:58.510Z,26.10
2018-11-25T06:53:02.595Z,26.07
2018-11-25T06:59:06.642Z,24.83
2018-11-25T07:05:10.134Z,23.80
2018-11-25T07:11:14.950Z,24.97
2018-11-25T07:17:18.326Z,25.33
2018-11-25T07:23:21.663Z,25.17
2018-11-25T07:29:25.074Z,26.03
2018-11-25T07:35:29.325Z,30.80
2018-11-25T07:41:33.919Z,34.17
2018-11-25T07:47:37.295Z,35.40
2018-11-25T07:53:41.158Z,35.50
2018-11-25T07:59:44.874Z,39.60
2018-11-25T08:05:48.321Z,40.70
2018-11-25T08:11:51.631Z,40.37
2018-11-25T08:17:54.987Z,40.30
2018-11-25T08:23:59.265Z,40.60
2018-11-25T08:30:05.269Z,38.67
2018-11-25T08:36:08.760Z,36.87
2018-11-25T08:42:13.027Z,39.37
2018-11-25T08:50:58.992Z,38.37
2018-11-25T08:57:02.480Z,33.27
2018-11-25T09:03:05.968Z,32.20
2018-11-25T09:09:10.172Z,33.83
2018-11-25T09:15:21.994Z,35.77
2018-11-25T09:21:26.140Z,31.47
2018-11-25T09:27:29.874Z,32.57
2018-11-25T09:33:33.866Z,31.70
2018-11-25T09:39:41.276Z,31.57
2018-11-25T09:45:44.814Z,33.03
2018-11-25T09:51:48.226Z,35.37
2018-11-25T09:57:55.061Z,35.50
2018-11-25T10:03:58.475Z,32.30
2018-11-25T10:10:01.852Z,32.17
2018-11-25T10:16:05.414Z,33.93
2018-11-25T10:22:09.004Z,33.63
2018-11-25T10:28:12.471Z,34.57
2018-11-25T10:34:15.858Z,37.97
2018-11-25T10:40:22.159Z,32.73
2018-11-25T10:46:25.776Z,36.27
2018-11-25T10:52:29.190Z,35.53
2018-11-25T10:58:32.509Z,33.90
2018-11-25T11:04:41.676Z,32.70
2018-11-25T11:10:45.034Z,30.83
2018-11-25T11:16:53.802Z,30.43
2018-11-25T11:22:51.880Z,31.33
2018-11-25T11:28:55.195Z,31.70
2018-11-25T11:35:00.262Z,32.93
2018-11-25T11:41:03.540Z,36.37
2018-11-25T11:47:07.238Z,34.73
2018-11-25T11:53:10.623Z,37.57
2018-11-25T11:59:14.994Z,36.80
2018-11-25T12:05:18.347Z,36.30
2018-11-25T12:11:21.983Z,35.77
2018-11-25T12:17:25.409Z,35.57
2018-11-25T12:23:28.908Z,34.33
2018-11-25T12:29:32.995Z,30.83
2018-11-25T12:35:36.357Z,32.90
2018-11-25T12:41:40.228Z,32.97
2018-11-25T12:47:43.805Z,31.83
2018-11-25T12:53:47.148Z,32.83
2018-11-25T13:02:29.394Z,31.13
2018-11-25T13:08:32.728Z,31.00
2018-11-25T13:14:36.140Z,34.30
2018-11-25T13:20:39.407Z,29.90
2018-11-25T13:26:42.895Z,32.70
2018-11-25T13:32:47.159Z,31.73
2018-11-25T13:38:50.412Z,28.50
2018-11-25T13:44:52.016Z,29.83
2018-11-25T13:51:05.244Z,28.20
2018-11-25T13:57:08.739Z,29.23
2018-11-25T14:03:15.337Z,30.87
2018-11-25T14:09:19.546Z,32.60
2018-11-25T14:15:23.026Z,31.87
2018-11-25T14:21:26.440Z,28.90
2018-11-25T14:27:29.897Z,30.80
2018-11-25T14:33:33.269Z,29.60
2018-11-25T14:39:36.478Z,28.77
2018-11-25T14:45:39.780Z,31.47
2018-11-25T14:54:16.480Z,32.10
2018-11-25T15:00:21.444Z,30.80
2018-11-25T15:06:29.281Z,31.57
2018-11-25T15:12:28.106Z,32.70
2018-11-25T15:18:31.779Z,35.03
2018-11-25T15:24:35.112Z,35.13
2018-11-25T15:30:38.375Z,35.10
2018-11-25T15:36:41.610Z,36.07
2018-11-25T15:42:45.192Z,48.13
2018-11-25T15:48:48.550Z,40.80
2018-11-25T15:54:51.871Z,48.63
2018-11-25T16:00:55.416Z,40.70
2018-11-25T16:06:59.967Z,38.60
2018-11-25T16:13:05.594Z,38.47
2018-11-25T16:19:08.901Z,35.27
2018-11-25T16:25:18.031Z,34.03
2018-11-25T16:31:21.621Z,35.60
2018-11-25T16:37:27.001Z,36.47
2018-11-25T16:43:30.569Z,39.20
2018-11-25T16:49:34.129Z,38.33
2018-11-25T16:55:37.539Z,39.37
2018-11-25T17:01:41.091Z,42.80
2018-11-25T17:07:45.637Z,38.33
2018-11-25T17:13:49.063Z,38.83
2018-11-25T17:19:53.001Z,37.00
2018-11-25T17:28:32.387Z,37.17
2018-11-25T17:34:35.894Z,36.63
2018-11-25T17:40:40.881Z,33.93
2018-11-25T17:46:45.451Z,38.80
2018-11-25T17:52:49.808Z,36.77
2018-11-25T17:58:53.975Z,35.57
2018-11-25T18:04:57.453Z,35.63
2018-11-25T18:11:00.895Z,37.10
2018-11-25T18:17:05.633Z,37.30
2018-11-25T18:23:11.474Z,36.37
2018-11-25T18:29:16.007Z,37.80
2018-11-25T18:35:20.781Z,36.63
2018-11-25T18:41:24.447Z,39.97
2018-11-25T18:47:28.155Z,38.60
2018-11-25T18:53:32.757Z,38.87
2018-11-25T18:59:36.968Z,35.33
2018-11-25T19:05:41.838Z,36.93
2018-11-25T19:11:46.083Z,35.43
2018-11-25T19:17:50.788Z,36.30
2018-11-25T19:23:54.959Z,36.60
2018-11-25T19:29:58.454Z,35.50
2018-11-25T19:36:02.767Z,32.27
2018-11-25T19:42:06.348Z,34.60
2018-11-25T19:48:09.742Z,35.60
2018-11-25T19:54:13.094Z,35.23
2018-11-25T20:00:19.523Z,35.20
2018-11-25T20:06:23.001Z,34.87
2018-11-25T20:12:31.878Z,32.97
2018-11-25T20:18:35.521Z,35.23
2018-11-25T20:24:39.027Z,34.30
2018-11-25T20:30:42.498Z,36.30
2018-11-25T20:36:45.846Z,37.83
2018-11-25T20:42:49.461Z,40.40
2018-11-25T20:48:55.280Z,38.83
2018-11-25T20:55:00.638Z,40.60
2018-11-25T21:01:04.562Z,40.70
2018-11-25T21:07:08.159Z,41.23
2018-11-25T21:13:11.897Z,40.87
2018-11-25T21:19:15.476Z,40.67
2018-11-25T21:25:21.661Z,42.40
2018-11-25T21:31:25.075Z,42.63
2018-11-25T21:37:29.227Z,43.23
2018-11-25T21:43:32.641Z,43.90
2018-11-25T21:49:35.963Z,44.87
2018-11-25T21:55:39.240Z,43.80
2018-11-25T22:01:42.619Z,45.63
2018-11-25T22:07:46.120Z,45.07
2018-11-25T22:13:49.735Z,46.23
2018-11-25T22:19:52.958Z,46.47
2018-11-25T22:25:56.245Z,47.67
2018-11-25T22:31:59.613Z,50.07
2018-11-25T22:38:03.568Z,46.83
2018-11-25T22:44:07.057Z,48.43
2018-11-25T22:50:14.831Z,48.03
2018-11-25T22:56:18.193Z,46.10
2018-11-25T23:02:21.484Z,46.07
2018-11-25T23:08:24.752Z,44.60
2018-11-25T23:14:28.256Z,47.07
2018-11-25T23:20:31.676Z,46.43
2018-11-25T23:26:34.981Z,46.50
2018-11-25T23:32:38.382Z,46.63
2018-11-25T23:38:41.753Z,46.30
2018-11-25T23:44:45.159Z,45.47
2018-11-25T23:50:48.396Z,46.10
2018-11-25T23:56:51.620Z,44.63
